Cripple Creek, Colorado
Current Conditions -  °F | °C
As of 2:56 AM on Friday 19 Dec 2014 (Local Time) from KCWN Reporting Station
Clear Clear  
Wind Chill: 21°   Ceiling: Unl
Heat Index: 26°   Visibility: 10mi
Dew Point: 25°   Wind: 5mph
Humidity: 94%   Direction: 170°S
Pressure: 30.04"   Gusts: NA
Location:  38.75°N, 105.18°W
Report Text: KCWN 190956Z AUTO 17004KT 10SM CLR M03/M04 A3004 RMK AO2 SLP196 T10311040
Loading
Personal Weather Stations






























Interactive Weather Map New forecast layout! Learn more

10-Day Weather Forecast

Advertisements
Track Severe Weather on mobile